Aviation Digital Data Service (ADDS)

Output produced by METARs form (0249 UTC 05 June 2020)
found at http://www.aviationweather.gov/metar/data/
 
METAR text: WMKA 050200Z VRB03KT 9999 -RA SCT028 26/26 Q1011
Conditions at: WMKA (S ABDUL HALIM , MY) observed 0200 UTC 05 June 2020
Temperature: 26.0°C (79°F)
Dewpoint: 26.0°C (79°F) [RH = 100%]
Pressure (altimeter): 29.85 inches Hg (1011.0 mb)
Winds: variable direction winds at 3 MPH (3 knots; 1.5 m/s)
Visibility: 6 or more miles (10+ km)
Ceiling: at least 12,000 feet AGL
Clouds: scattered clouds at 2800 feet AGL
Weather: -RA  (light rain)

METAR text: WMKA 050100Z VRB03KT 6000 -RA FEW000 FEW017CB SCT028 26/25 Q1011
Conditions at: WMKA (S ABDUL HALIM , MY) observed 0100 UTC 05 June 2020
Temperature: 26.0°C (79°F)
Dewpoint: 25.0°C (77°F) [RH = 94%]
Pressure (altimeter): 29.85 inches Hg (1011.0 mb)
Winds: variable direction winds at 3 MPH (3 knots; 1.5 m/s)
Visibility: 4 miles ( 6 km)
Ceiling: at least 12,000 feet AGL
Clouds: few clouds at 0 feet AGL
few clouds at 1700 feet AGL
scattered clouds at 2800 feet AGL
Weather: -RA  (light rain)

METAR text: WMKA 050000Z VRB01KT 6000 -RA FEW000 FEW017CB SCT030 25/25 Q1010
Conditions at: WMKA (S ABDUL HALIM , MY) observed 0000 UTC 05 June 2020
Temperature: 25.0°C (77°F)
Dewpoint: 25.0°C (77°F) [RH = 100%]
Pressure (altimeter): 29.82 inches Hg (1010.0 mb)
Winds: variable direction winds at 1 MPH (1 knots; 0.5 m/s)
Visibility: 4 miles ( 6 km)
Ceiling: at least 12,000 feet AGL
Clouds: few clouds at 0 feet AGL
few clouds at 1700 feet AGL
scattered clouds at 3000 feet AGL
Weather: -RA  (light rain)

METAR text: WMKA 042300Z VRB03KT 8000 FEW010 FEW017CB SCT030 25/25 Q1010
Conditions at: WMKA (S ABDUL HALIM , MY) observed 2300 UTC 04 June 2020
Temperature: 25.0°C (77°F)
Dewpoint: 25.0°C (77°F) [RH = 100%]
Pressure (altimeter): 29.82 inches Hg (1010.0 mb)
Winds: variable direction winds at 3 MPH (3 knots; 1.5 m/s)
Visibility: 5 miles ( 8 km)
Ceiling: at least 12,000 feet AGL
Clouds: few clouds at 1000 feet AGL
few clouds at 1700 feet AGL
scattered clouds at 3000 feet AGL
Weather: no significant weather observed at this time

METAR text: WMKA 042200Z VRB02KT 6000 FEW006 FEW016CB SCT028 24/24 Q1009 RETSRA
Conditions at: WMKA (S ABDUL HALIM , MY) observed 2200 UTC 04 June 2020
Temperature: 24.0°C (75°F)
Dewpoint: 24.0°C (75°F) [RH = 100%]
Pressure (altimeter): 29.79 inches Hg (1009.0 mb)
Winds: variable direction winds at 2 MPH (2 knots; 1.0 m/s)
Visibility: 4 miles ( 6 km)
Ceiling: at least 12,000 feet AGL
Clouds: few clouds at 600 feet AGL
few clouds at 1600 feet AGL
scattered clouds at 2800 feet AGL
Weather: no significant weather observed at this time

METAR text: WMKA 042100Z VRB02KT 8000 -TSRA FEW008 FEW016CB SCT026 24/24 Q1009
Conditions at: WMKA (S ABDUL HALIM , MY) observed 2100 UTC 04 June 2020
Temperature: 24.0°C (75°F)
Dewpoint: 24.0°C (75°F) [RH = 100%]
Pressure (altimeter): 29.79 inches Hg (1009.0 mb)
Winds: variable direction winds at 2 MPH (2 knots; 1.0 m/s)
Visibility: 5 miles ( 8 km)
Ceiling: at least 12,000 feet AGL
Clouds: few clouds at 800 feet AGL
few clouds at 1600 feet AGL
scattered clouds at 2600 feet AGL
Weather: -TSRA  (light rain associated with thunderstorm(s))

METAR text: WMKA 042000Z VRB03KT 6000 -TSRA FEW006 FEW016CB SCT026 24/24 Q1010
Conditions at: WMKA (S ABDUL HALIM , MY) observed 2000 UTC 04 June 2020
Temperature: 24.0°C (75°F)
Dewpoint: 24.0°C (75°F) [RH = 100%]
Pressure (altimeter): 29.82 inches Hg (1010.0 mb)
Winds: variable direction winds at 3 MPH (3 knots; 1.5 m/s)
Visibility: 4 miles ( 6 km)
Ceiling: at least 12,000 feet AGL
Clouds: few clouds at 600 feet AGL
few clouds at 1600 feet AGL
scattered clouds at 2600 feet AGL
Weather: -TSRA  (light rain associated with thunderstorm(s))

METAR text: WMKA 041900Z 28012KT 230V320 6000 -TSRA FEW006 FEW016CB SCT026 25/24 Q1010
Conditions at: WMKA (S ABDUL HALIM , MY) observed 1900 UTC 04 June 2020
Temperature: 25.0°C (77°F)
Dewpoint: 24.0°C (75°F) [RH = 94%]
Pressure (altimeter): 29.82 inches Hg (1010.0 mb)
Winds: from the W (280 degrees) at 14 MPH (12 knots; 6.2 m/s)
Visibility: 4 miles ( 6 km)
Ceiling: at least 12,000 feet AGL
Clouds: few clouds at 600 feet AGL
few clouds at 1600 feet AGL
scattered clouds at 2600 feet AGL
Weather: -TSRA  (light rain associated with thunderstorm(s))

METAR text: WMKA 041800Z 17007KT 140V230 9999 FEW017CB 26/26 Q1010
Conditions at: WMKA (S ABDUL HALIM , MY) observed 1800 UTC 04 June 2020
Temperature: 26.0°C (79°F)
Dewpoint: 26.0°C (79°F) [RH = 100%]
Pressure (altimeter): 29.82 inches Hg (1010.0 mb)
Winds: from the S (170 degrees) at 8 MPH (7 knots; 3.6 m/s)
Visibility: 6 or more miles (10+ km)
Ceiling: at least 12,000 feet AGL
Clouds: few clouds at 1700 feet AGL
Weather: no significant weather observed at this time

METAR text: WMKA 041700Z VRB01KT 9999 FEW030 27/26 Q1011
Conditions at: WMKA (S ABDUL HALIM , MY) observed 1700 UTC 04 June 2020
Temperature: 27.0°C (81°F)
Dewpoint: 26.0°C (79°F) [RH = 94%]
Pressure (altimeter): 29.85 inches Hg (1011.0 mb)
Winds: variable direction winds at 1 MPH (1 knots; 0.5 m/s)
Visibility: 6 or more miles (10+ km)
Ceiling: at least 12,000 feet AGL
Clouds: few clouds at 3000 feet AGL
Weather: no significant weather observed at this time

METAR text: WMKA 041600Z VRB02KT 9999 FEW030 27/25 Q1011
Conditions at: WMKA (S ABDUL HALIM , MY) observed 1600 UTC 04 June 2020
Temperature: 27.0°C (81°F)
Dewpoint: 25.0°C (77°F) [RH = 89%]
Pressure (altimeter): 29.85 inches Hg (1011.0 mb)
Winds: variable direction winds at 2 MPH (2 knots; 1.0 m/s)
Visibility: 6 or more miles (10+ km)
Ceiling: at least 12,000 feet AGL
Clouds: few clouds at 3000 feet AGL
Weather: no significant weather observed at this time

METAR text: WMKA 041500Z VRB02KT 9999 FEW030 27/25 Q1011
Conditions at: WMKA (S ABDUL HALIM , MY) observed 1500 UTC 04 June 2020
Temperature: 27.0°C (81°F)
Dewpoint: 25.0°C (77°F) [RH = 89%]
Pressure (altimeter): 29.85 inches Hg (1011.0 mb)
Winds: variable direction winds at 2 MPH (2 knots; 1.0 m/s)
Visibility: 6 or more miles (10+ km)
Ceiling: at least 12,000 feet AGL
Clouds: few clouds at 3000 feet AGL
Weather: no significant weather observed at this time

METAR text: WMKA 041400Z VRB02KT 9999 FEW030 28/25 Q1010
Conditions at: WMKA (S ABDUL HALIM , MY) observed 1400 UTC 04 June 2020
Temperature: 28.0°C (82°F)
Dewpoint: 25.0°C (77°F) [RH = 84%]
Pressure (altimeter): 29.82 inches Hg (1010.0 mb)
Winds: variable direction winds at 2 MPH (2 knots; 1.0 m/s)
Visibility: 6 or more miles (10+ km)
Ceiling: at least 12,000 feet AGL
Clouds: few clouds at 3000 feet AGL
Weather: no significant weather observed at this time

METAR text: WMKA 041300Z VRB04KT 9999 FEW030 28/25 Q1010
Conditions at: WMKA (S ABDUL HALIM , MY) observed 1300 UTC 04 June 2020
Temperature: 28.0°C (82°F)
Dewpoint: 25.0°C (77°F) [RH = 84%]
Pressure (altimeter): 29.82 inches Hg (1010.0 mb)
Winds: variable direction winds at 5 MPH (4 knots; 2.1 m/s)
Visibility: 6 or more miles (10+ km)
Ceiling: at least 12,000 feet AGL
Clouds: few clouds at 3000 feet AGL
Weather: no significant weather observed at this time

METAR text: WMKA 041200Z 25006KT 190V300 9999 FEW030 28/25 Q1008
Conditions at: WMKA (S ABDUL HALIM , MY) observed 1200 UTC 04 June 2020
Temperature: 28.0°C (82°F)
Dewpoint: 25.0°C (77°F) [RH = 84%]
Pressure (altimeter): 29.76 inches Hg (1008.0 mb)
Winds: from the WSW (250 degrees) at 7 MPH (6 knots; 3.1 m/s)
Visibility: 6 or more miles (10+ km)
Ceiling: at least 12,000 feet AGL
Clouds: few clouds at 3000 feet AGL
Weather: no significant weather observed at this time

METAR text: WMKA 041100Z 25007KT 210V280 9999 FEW020 29/26 Q1008
Conditions at: WMKA (S ABDUL HALIM , MY) observed 1100 UTC 04 June 2020
Temperature: 29.0°C (84°F)
Dewpoint: 26.0°C (79°F) [RH = 84%]
Pressure (altimeter): 29.76 inches Hg (1008.0 mb)
Winds: from the WSW (250 degrees) at 8 MPH (7 knots; 3.6 m/s)
Visibility: 6 or more miles (10+ km)
Ceiling: at least 12,000 feet AGL
Clouds: few clouds at 2000 feet AGL
Weather: no significant weather observed at this time

METAR text: WMKA 041000Z 25007KT 200V330 9999 FEW017CB 30/25 Q1007
Conditions at: WMKA (S ABDUL HALIM , MY) observed 1000 UTC 04 June 2020
Temperature: 30.0°C (86°F)
Dewpoint: 25.0°C (77°F) [RH = 75%]
Pressure (altimeter): 29.73 inches Hg (1007.0 mb)
Winds: from the WSW (250 degrees) at 8 MPH (7 knots; 3.6 m/s)
Visibility: 6 or more miles (10+ km)
Ceiling: at least 12,000 feet AGL
Clouds: few clouds at 1700 feet AGL
Weather: no significant weather observed at this time

METAR text: WMKA 040900Z VRB05KT 9999 FEW017CB SCT020 31/25 Q1007
Conditions at: WMKA (S ABDUL HALIM , MY) observed 0900 UTC 04 June 2020
Temperature: 31.0°C (88°F)
Dewpoint: 25.0°C (77°F) [RH = 71%]
Pressure (altimeter): 29.73 inches Hg (1007.0 mb)
Winds: variable direction winds at 6 MPH (5 knots; 2.6 m/s)
Visibility: 6 or more miles (10+ km)
Ceiling: at least 12,000 feet AGL
Clouds: few clouds at 1700 feet AGL
scattered clouds at 2000 feet AGL
Weather: no significant weather observed at this time

METAR text: WMKA 040800Z 22005KT 150V320 9999 FEW020 31/25 Q1008
Conditions at: WMKA (S ABDUL HALIM , MY) observed 0800 UTC 04 June 2020
Temperature: 31.0°C (88°F)
Dewpoint: 25.0°C (77°F) [RH = 71%]
Pressure (altimeter): 29.76 inches Hg (1008.0 mb)
Winds: from the SW (220 degrees) at 6 MPH (5 knots; 2.6 m/s)
Visibility: 6 or more miles (10+ km)
Ceiling: at least 12,000 feet AGL
Clouds: few clouds at 2000 feet AGL
Weather: no significant weather observed at this time

METAR text: WMKA 040700Z 16008KT 140V200 9999 FEW020 31/27 Q1009
Conditions at: WMKA (S ABDUL HALIM , MY) observed 0700 UTC 04 June 2020
Temperature: 31.0°C (88°F)
Dewpoint: 27.0°C (81°F) [RH = 79%]
Pressure (altimeter): 29.79 inches Hg (1009.0 mb)
Winds: from the SSE (160 degrees) at 9 MPH (8 knots; 4.1 m/s)
Visibility: 6 or more miles (10+ km)
Ceiling: at least 12,000 feet AGL
Clouds: few clouds at 2000 feet AGL
Weather: no significant weather observed at this time

METAR text: WMKA 040600Z 20006KT 160V280 9999 FEW010 SCT018 29/26 Q1010
Conditions at: WMKA (S ABDUL HALIM , MY) observed 0600 UTC 04 June 2020
Temperature: 29.0°C (84°F)
Dewpoint: 26.0°C (79°F) [RH = 84%]
Pressure (altimeter): 29.82 inches Hg (1010.0 mb)
Winds: from the SSW (200 degrees) at 7 MPH (6 knots; 3.1 m/s)
Visibility: 6 or more miles (10+ km)
Ceiling: at least 12,000 feet AGL
Clouds: few clouds at 1000 feet AGL
scattered clouds at 1800 feet AGL
Weather: no significant weather observed at this time

METAR text: WMKA 040500Z 17008KT 140V210 9999 SCT020 31/26 Q1010
Conditions at: WMKA (S ABDUL HALIM , MY) observed 0500 UTC 04 June 2020
Temperature: 31.0°C (88°F)
Dewpoint: 26.0°C (79°F) [RH = 75%]
Pressure (altimeter): 29.82 inches Hg (1010.0 mb)
Winds: from the S (170 degrees) at 9 MPH (8 knots; 4.1 m/s)
Visibility: 6 or more miles (10+ km)
Ceiling: at least 12,000 feet AGL
Clouds: scattered clouds at 2000 feet AGL
Weather: no significant weather observed at this time

METAR text: WMKA 040400Z 15006KT 040V200 9999 FEW017CB SCT020 31/27 Q1011
Conditions at: WMKA (S ABDUL HALIM , MY) observed 0400 UTC 04 June 2020
Temperature: 31.0°C (88°F)
Dewpoint: 27.0°C (81°F) [RH = 79%]
Pressure (altimeter): 29.85 inches Hg (1011.0 mb)
Winds: from the SSE (150 degrees) at 7 MPH (6 knots; 3.1 m/s)
Visibility: 6 or more miles (10+ km)
Ceiling: at least 12,000 feet AGL
Clouds: few clouds at 1700 feet AGL
scattered clouds at 2000 feet AGL
Weather: no significant weather observed at this time

METAR text: WMKA 040300Z 17003KT 140V220 9999 FEW017CB 30/26 Q1011
Conditions at: WMKA (S ABDUL HALIM , MY) observed 0300 UTC 04 June 2020
Temperature: 30.0°C (86°F)
Dewpoint: 26.0°C (79°F) [RH = 79%]
Pressure (altimeter): 29.85 inches Hg (1011.0 mb)
Winds: from the S (170 degrees) at 3 MPH (3 knots; 1.5 m/s)
Visibility: 6 or more miles (10+ km)
Ceiling: at least 12,000 feet AGL
Clouds: few clouds at 1700 feet AGL
Weather: no significant weather observed at this time

METAR text: WMKA 040200Z 15004KT 080V190 9999 FEW017CB 29/26 Q1011
Conditions at: WMKA (S ABDUL HALIM , MY) observed 0200 UTC 04 June 2020
Temperature: 29.0°C (84°F)
Dewpoint: 26.0°C (79°F) [RH = 84%]
Pressure (altimeter): 29.85 inches Hg (1011.0 mb)
Winds: from the SSE (150 degrees) at 5 MPH (4 knots; 2.1 m/s)
Visibility: 6 or more miles (10+ km)
Ceiling: at least 12,000 feet AGL
Clouds: few clouds at 1700 feet AGL
Weather: no significant weather observed at this time

METAR text: WMKA 040100Z VRB02KT 9999 FEW017CB 27/26 Q1011
Conditions at: WMKA (S ABDUL HALIM , MY) observed 0100 UTC 04 June 2020
Temperature: 27.0°C (81°F)
Dewpoint: 26.0°C (79°F) [RH = 94%]
Pressure (altimeter): 29.85 inches Hg (1011.0 mb)
Winds: variable direction winds at 2 MPH (2 knots; 1.0 m/s)
Visibility: 6 or more miles (10+ km)
Ceiling: at least 12,000 feet AGL
Clouds: few clouds at 1700 feet AGL
Weather: no significant weather observed at this time

METAR text: WMKA 040000Z VRB02KT 9999 FEW017CB 26/25 Q1010
Conditions at: WMKA (S ABDUL HALIM , MY) observed 0000 UTC 04 June 2020
Temperature: 26.0°C (79°F)
Dewpoint: 25.0°C (77°F) [RH = 94%]
Pressure (altimeter): 29.82 inches Hg (1010.0 mb)
Winds: variable direction winds at 2 MPH (2 knots; 1.0 m/s)
Visibility: 6 or more miles (10+ km)
Ceiling: at least 12,000 feet AGL
Clouds: few clouds at 1700 feet AGL
Weather: no significant weather observed at this time

METAR text: WMKA 032300Z 00000KT 9999 FEW017CB 25/24 Q1009
Conditions at: WMKA (S ABDUL HALIM , MY) observed 2300 UTC 03 June 2020
Temperature: 25.0°C (77°F)
Dewpoint: 24.0°C (75°F) [RH = 94%]
Pressure (altimeter): 29.79 inches Hg (1009.0 mb)
Winds: calm
Visibility: 6 or more miles (10+ km)
Ceiling: at least 12,000 feet AGL
Clouds: few clouds at 1700 feet AGL
Weather: no significant weather observed at this time

METAR text: WMKA 032200Z VRB01KT 9999 FEW017CB SCT030 25/24 Q1009
Conditions at: WMKA (S ABDUL HALIM , MY) observed 2200 UTC 03 June 2020
Temperature: 25.0°C (77°F)
Dewpoint: 24.0°C (75°F) [RH = 94%]
Pressure (altimeter): 29.79 inches Hg (1009.0 mb)
Winds: variable direction winds at 1 MPH (1 knots; 0.5 m/s)
Visibility: 6 or more miles (10+ km)
Ceiling: at least 12,000 feet AGL
Clouds: few clouds at 1700 feet AGL
scattered clouds at 3000 feet AGL
Weather: no significant weather observed at this time

METAR text: WMKA 032100Z VRB02KT 9999 SCT030 25/25 Q1009
Conditions at: WMKA (S ABDUL HALIM , MY) observed 2100 UTC 03 June 2020
Temperature: 25.0°C (77°F)
Dewpoint: 25.0°C (77°F) [RH = 100%]
Pressure (altimeter): 29.79 inches Hg (1009.0 mb)
Winds: variable direction winds at 2 MPH (2 knots; 1.0 m/s)
Visibility: 6 or more miles (10+ km)
Ceiling: at least 12,000 feet AGL
Clouds: scattered clouds at 3000 feet AGL
Weather: no significant weather observed at this time

METAR text: WMKA 032000Z VRB02KT 9999 SCT030 25/25 Q1009
Conditions at: WMKA (S ABDUL HALIM , MY) observed 2000 UTC 03 June 2020
Temperature: 25.0°C (77°F)
Dewpoint: 25.0°C (77°F) [RH = 100%]
Pressure (altimeter): 29.79 inches Hg (1009.0 mb)
Winds: variable direction winds at 2 MPH (2 knots; 1.0 m/s)
Visibility: 6 or more miles (10+ km)
Ceiling: at least 12,000 feet AGL
Clouds: scattered clouds at 3000 feet AGL
Weather: no significant weather observed at this time

METAR text: WMKA 031900Z VRB02KT 9999 SCT030 25/25 Q1009
Conditions at: WMKA (S ABDUL HALIM , MY) observed 1900 UTC 03 June 2020
Temperature: 25.0°C (77°F)
Dewpoint: 25.0°C (77°F) [RH = 100%]
Pressure (altimeter): 29.79 inches Hg (1009.0 mb)
Winds: variable direction winds at 2 MPH (2 knots; 1.0 m/s)
Visibility: 6 or more miles (10+ km)
Ceiling: at least 12,000 feet AGL
Clouds: scattered clouds at 3000 feet AGL
Weather: no significant weather observed at this time

METAR text: WMKA 031800Z VRB03KT 9999 SCT030 26/25 Q1010
Conditions at: WMKA (S ABDUL HALIM , MY) observed 1800 UTC 03 June 2020
Temperature: 26.0°C (79°F)
Dewpoint: 25.0°C (77°F) [RH = 94%]
Pressure (altimeter): 29.82 inches Hg (1010.0 mb)
Winds: variable direction winds at 3 MPH (3 knots; 1.5 m/s)
Visibility: 6 or more miles (10+ km)
Ceiling: at least 12,000 feet AGL
Clouds: scattered clouds at 3000 feet AGL
Weather: no significant weather observed at this time

METAR text: WMKA 031700Z 13003KT 080V160 9999 SCT030 26/24 Q1010
Conditions at: WMKA (S ABDUL HALIM , MY) observed 1700 UTC 03 June 2020
Temperature: 26.0°C (79°F)
Dewpoint: 24.0°C (75°F) [RH = 89%]
Pressure (altimeter): 29.82 inches Hg (1010.0 mb)
Winds: from the SE (130 degrees) at 3 MPH (3 knots; 1.5 m/s)
Visibility: 6 or more miles (10+ km)
Ceiling: at least 12,000 feet AGL
Clouds: scattered clouds at 3000 feet AGL
Weather: no significant weather observed at this time

METAR text: WMKA 031600Z VRB01KT 9999 SCT030 26/25 Q1010
Conditions at: WMKA (S ABDUL HALIM , MY) observed 1600 UTC 03 June 2020
Temperature: 26.0°C (79°F)
Dewpoint: 25.0°C (77°F) [RH = 94%]
Pressure (altimeter): 29.82 inches Hg (1010.0 mb)
Winds: variable direction winds at 1 MPH (1 knots; 0.5 m/s)
Visibility: 6 or more miles (10+ km)
Ceiling: at least 12,000 feet AGL
Clouds: scattered clouds at 3000 feet AGL
Weather: no significant weather observed at this time

METAR text: WMKA 031500Z VRB02KT 9999 SCT030 26/25 Q1010
Conditions at: WMKA (S ABDUL HALIM , MY) observed 1500 UTC 03 June 2020
Temperature: 26.0°C (79°F)
Dewpoint: 25.0°C (77°F) [RH = 94%]
Pressure (altimeter): 29.82 inches Hg (1010.0 mb)
Winds: variable direction winds at 2 MPH (2 knots; 1.0 m/s)
Visibility: 6 or more miles (10+ km)
Ceiling: at least 12,000 feet AGL
Clouds: scattered clouds at 3000 feet AGL
Weather: no significant weather observed at this time

Forecast for: AMD
Text: TAF AMD WMKA 042318Z 0500/0600 VRB03KT 9999 FEW020
Forecast period: 0000 to 0400 UTC 05 June 2020
Forecast type: FROM: standard forecast or significant change
Winds: variable direction winds at 3 MPH (3 knots; 1.5 m/s)
Visibility: 6 or more miles 10+ km)
Ceiling: at least 12,000 feet AGL
Clouds: few clouds at 2000 feet AGL
Weather: no significant weather forecast for this period
Text: TEMPO 0500/0502 6000 -TSRA FEW017CB
Forecast period: 0000 to 0200 UTC 05 June 2020
Forecast type: TEMPORARY: The following changes expected for less than half the time period
Visibility: 4 miles (6 km)
Ceiling: at least 12,000 feet AGL
Clouds: few clouds at 1700 feet AGL
Weather: -TSRA  (light rain associated with thunderstorm(s))
Text: BECMG 0504/0506 21006KT
Forecast period: 0400 UTC 05 June 2020 to 0000 UTC 06 June 2020
Forecast type: BECOMING: Conditions expected to become as follows by 0600 UTC 05 June 2020
Winds: from the SSW (210 degrees) at 7 MPH (6 knots; 3.1 m/s)
Visibility: 6 or more miles 10+ km)
Ceiling: at least 12,000 feet AGL
Clouds: few clouds at 2000 feet AGL
Weather: no significant weather forecast for this period
Text: TEMPO 0508/0512 5000 TSRA FEW010 FEW017CB
Forecast period: 0800 to 1200 UTC 05 June 2020
Forecast type: TEMPORARY: The following changes expected for less than half the time period
Visibility: 3 miles (5 km)
Ceiling: at least 12,000 feet AGL
Clouds: few clouds at 1000 feet AGL
few clouds at 1700 feet AGL
Weather: TSRA  (rain associated with thunderstorm(s))